createdAt,value
2023-01-28T00:02:57.524Z,20.25
2023-01-28T00:08:18.241Z,23.02
2023-01-28T00:13:39.445Z,21.20
2023-01-28T00:19:00.114Z,14.82
2023-01-28T00:24:20.973Z,21.80
2023-01-28T00:29:41.581Z,18.50
2023-01-28T00:35:02.199Z,24.92
2023-01-28T00:40:22.963Z,22.55
2023-01-28T00:45:43.837Z,22.30
2023-01-28T00:51:04.918Z,24.50
2023-01-28T00:56:25.607Z,29.02
2023-01-28T01:01:46.515Z,25.58
2023-01-28T01:07:07.636Z,23.65
2023-01-28T01:12:28.718Z,27.83
2023-01-28T01:17:50.588Z,28.40
2023-01-28T01:23:12.814Z,24.10
2023-01-28T01:28:35.085Z,22.38
2023-01-28T01:33:56.091Z,27.15
2023-01-28T01:39:17.110Z,27.50
2023-01-28T01:45:00.324Z,24.38
2023-01-28T01:50:42.456Z,28.27
2023-01-28T01:56:06.802Z,23.55
2023-01-28T02:01:30.914Z,23.65
2023-01-28T02:06:52.597Z,24.42
2023-01-28T02:12:17.959Z,22.80
2023-01-28T02:17:39.221Z,25.20
2023-01-28T02:23:24.841Z,23.77
2023-01-28T02:28:52.731Z,27.23
2023-01-28T02:34:38.856Z,27.50
2023-01-28T02:40:08.957Z,34.08
2023-01-28T02:45:53.073Z,24.10
2023-01-28T02:51:41.700Z,28.40
2023-01-28T02:57:23.253Z,30.27
2023-01-28T03:08:34.185Z,32.97
2023-01-28T03:14:13.935Z,24.17
2023-01-28T03:19:53.677Z,27.77
2023-01-28T03:25:34.314Z,33.33
2023-01-28T03:31:29.092Z,28.63
2023-01-28T03:36:54.110Z,34.22
2023-01-28T03:42:40.896Z,25.55
2023-01-28T03:48:27.558Z,25.45
2023-01-28T03:53:48.553Z,33.88
2023-01-28T03:59:09.439Z,28.30
2023-01-28T04:04:32.739Z,23.42
2023-01-28T04:09:53.713Z,22.13
2023-01-28T04:15:31.059Z,24.00
2023-01-28T04:20:52.464Z,24.90
2023-01-28T04:26:13.736Z,26.60
2023-01-28T04:31:34.973Z,22.92
2023-01-28T04:37:18.672Z,14.30
2023-01-28T04:42:58.701Z,26.60
2023-01-28T04:48:40.642Z,20.20
2023-01-28T04:54:16.860Z,23.83
2023-01-28T04:59:38.351Z,23.75
2023-01-28T05:05:01.594Z,17.85
2023-01-28T05:10:50.172Z,23.08
2023-01-28T05:16:11.469Z,17.90
2023-01-28T05:21:32.156Z,19.38
2023-01-28T05:26:56.991Z,16.70
2023-01-28T05:32:18.238Z,20.95
2023-01-28T05:37:39.224Z,16.85
2023-01-28T05:43:00.632Z,16.17
2023-01-28T05:48:47.553Z,19.55
2023-01-28T05:54:28.813Z,18.05
2023-01-28T05:59:50.820Z,17.58
2023-01-28T06:05:11.539Z,17.48
2023-01-28T06:10:33.289Z,17.15
2023-01-28T06:15:54.146Z,15.48
2023-01-28T06:21:20.985Z,13.95
2023-01-28T06:26:41.748Z,15.65
2023-01-28T06:32:02.626Z,14.65
2023-01-28T06:37:26.011Z,10.43
2023-01-28T06:42:47.097Z,11.00
2023-01-28T06:48:08.881Z,12.93
2023-01-28T06:53:30.042Z,8.52
2023-01-28T06:58:51.159Z,10.30
2023-01-28T07:04:12.168Z,12.45
2023-01-28T07:09:33.034Z,11.43
2023-01-28T07:14:53.817Z,11.45
2023-01-28T07:20:16.013Z,9.98
2023-01-28T07:25:36.902Z,10.75
2023-01-28T07:30:57.985Z,9.32
2023-01-28T07:36:18.956Z,6.65
2023-01-28T07:41:39.612Z,8.43
2023-01-28T07:47:01.666Z,6.85
2023-01-28T07:52:22.848Z,8.65
2023-01-28T07:57:55.793Z,8.65
2023-01-28T08:03:16.889Z,10.10
2023-01-28T08:08:37.603Z,11.32
2023-01-28T08:13:58.217Z,9.30
2023-01-28T08:19:21.493Z,7.95
2023-01-28T08:24:42.338Z,7.20
2023-01-28T08:30:03.869Z,10.05
2023-01-28T08:35:26.046Z,5.97
2023-01-28T08:40:48.163Z,5.25
2023-01-28T08:46:09.152Z,6.88
2023-01-28T08:51:30.187Z,9.10
2023-01-28T08:56:51.696Z,6.60
2023-01-28T09:02:30.253Z,4.72
2023-01-28T09:07:51.383Z,4.93
2023-01-28T09:13:15.317Z,6.35
2023-01-28T09:18:36.192Z,5.68
2023-01-28T09:23:58.445Z,4.40
2023-01-28T09:29:19.600Z,5.38
2023-01-28T09:34:40.288Z,5.68
2023-01-28T09:40:01.153Z,4.35
2023-01-28T09:45:27.911Z,5.13
2023-01-28T09:50:54.809Z,4.28
2023-01-28T09:56:31.257Z,5.97
2023-01-28T10:02:04.373Z,3.85
2023-01-28T10:08:07.369Z,5.32
2023-01-28T10:13:37.964Z,6.25
2023-01-28T10:19:06.192Z,7.28
2023-01-28T10:24:36.720Z,5.97
2023-01-28T10:29:59.926Z,4.97
2023-01-28T10:35:22.415Z,7.40
2023-01-28T10:40:44.418Z,6.95
2023-01-28T10:46:14.531Z,7.22
2023-01-28T10:51:38.801Z,7.55
2023-01-28T10:57:04.281Z,7.75
2023-01-28T11:02:33.088Z,6.88
2023-01-28T11:08:04.057Z,5.70
2023-01-28T11:13:28.097Z,10.15
2023-01-28T11:19:05.369Z,7.00
2023-01-28T11:24:31.025Z,6.72
2023-01-28T11:29:52.723Z,5.13
2023-01-28T11:35:27.866Z,7.35
2023-01-28T11:41:06.689Z,7.10
2023-01-28T11:46:45.914Z,7.05
2023-01-28T11:52:25.624Z,9.27
2023-01-28T11:57:55.991Z,11.63
2023-01-28T12:09:11.224Z,6.78
2023-01-28T12:15:00.035Z,6.20
2023-01-28T12:20:20.934Z,5.53
2023-01-28T12:25:54.044Z,7.97
2023-01-28T12:31:45.609Z,7.47
2023-01-28T12:37:38.715Z,5.90
2023-01-28T12:43:30.090Z,5.28
2023-01-28T12:49:06.538Z,6.88
2023-01-28T12:54:58.288Z,6.15
2023-01-28T13:00:28.582Z,4.97
2023-01-28T13:06:15.541Z,4.45
2023-01-28T13:11:37.745Z,6.82
2023-01-28T13:17:27.381Z,5.78
2023-01-28T13:22:48.323Z,4.87
2023-01-28T13:28:26.690Z,4.38
2023-01-28T13:33:56.507Z,6.45
2023-01-28T13:39:26.134Z,13.30
2023-01-28T13:44:47.274Z,6.07
2023-01-28T13:50:15.184Z,6.43
2023-01-28T13:55:45.174Z,3.17
2023-01-28T14:01:50.914Z,4.20
2023-01-28T14:07:30.537Z,5.43
2023-01-28T14:13:57.459Z,3.30
2023-01-28T14:19:26.359Z,4.00
2023-01-28T14:24:48.346Z,4.88
2023-01-28T14:30:16.347Z,4.25
2023-01-28T14:35:40.373Z,7.45
2023-01-28T14:41:02.123Z,2.88
2023-01-28T14:46:35.601Z,4.38
2023-01-28T14:52:24.654Z,4.15
2023-01-28T14:57:51.303Z,4.40
2023-01-28T15:03:24.894Z,5.05
2023-01-28T15:08:46.117Z,7.10
2023-01-28T15:14:16.442Z,4.32
2023-01-28T15:19:37.925Z,3.85
2023-01-28T15:24:58.662Z,4.38
2023-01-28T15:30:28.758Z,2.88
2023-01-28T15:35:51.731Z,3.30
2023-01-28T15:41:12.649Z,3.35
2023-01-28T15:46:33.985Z,4.20
2023-01-28T15:51:55.389Z,2.67
2023-01-28T15:57:20.890Z,3.45
2023-01-28T16:02:53.128Z,3.75
2023-01-28T16:08:27.083Z,3.70
2023-01-28T16:13:47.902Z,3.45
2023-01-28T16:19:08.533Z,5.28
2023-01-28T16:24:32.946Z,6.32
2023-01-28T16:29:54.328Z,5.70
2023-01-28T16:35:21.898Z,4.88
2023-01-28T16:40:43.827Z,5.93
2023-01-28T16:46:09.169Z,5.25
2023-01-28T16:51:31.494Z,4.20
2023-01-28T16:56:52.287Z,4.47
2023-01-28T17:02:14.975Z,5.90
2023-01-28T17:07:36.095Z,4.72
2023-01-28T17:12:58.736Z,5.72
2023-01-28T17:18:20.043Z,4.43
2023-01-28T17:23:41.362Z,5.03
2023-01-28T17:29:05.358Z,3.58
2023-01-28T17:34:27.616Z,6.22
2023-01-28T17:39:48.239Z,4.10
2023-01-28T17:45:09.859Z,8.02
2023-01-28T17:50:30.752Z,7.25
2023-01-28T17:55:51.639Z,5.68
2023-01-28T18:01:12.976Z,8.43
2023-01-28T18:06:35.384Z,9.18
2023-01-28T18:11:56.680Z,6.68
2023-01-28T18:17:19.828Z,6.97
2023-01-28T18:22:42.437Z,6.82
2023-01-28T18:28:05.297Z,7.30
2023-01-28T18:33:26.621Z,9.65
2023-01-28T18:38:47.387Z,4.72
2023-01-28T18:44:09.726Z,7.50
2023-01-28T18:49:30.910Z,6.88
2023-01-28T18:54:51.938Z,7.70
2023-01-28T19:00:13.015Z,5.68
2023-01-28T19:05:38.657Z,4.38
2023-01-28T19:10:59.839Z,5.95
2023-01-28T19:16:21.834Z,5.68
2023-01-28T19:21:43.344Z,4.35
2023-01-28T19:27:04.038Z,5.00
2023-01-28T19:32:24.748Z,4.22
2023-01-28T19:37:46.773Z,4.82
2023-01-28T19:43:08.168Z,3.85
2023-01-28T19:48:29.943Z,6.05
2023-01-28T19:53:53.274Z,4.45
2023-01-28T19:59:15.135Z,4.75
2023-01-28T20:04:36.002Z,4.40
2023-01-28T20:09:57.328Z,5.43
2023-01-28T20:15:18.323Z,7.95
2023-01-28T20:20:39.111Z,3.70
2023-01-28T20:26:03.279Z,7.00
2023-01-28T20:31:24.246Z,2.40
2023-01-28T20:36:46.819Z,2.97
2023-01-28T20:42:10.192Z,5.10
2023-01-28T20:47:31.358Z,4.18
2023-01-28T20:52:52.541Z,3.13
2023-01-28T20:58:13.495Z,4.30
2023-01-28T21:03:34.440Z,5.30
2023-01-28T21:08:55.163Z,4.43
2023-01-28T21:14:17.092Z,4.93
2023-01-28T21:19:38.122Z,3.92
2023-01-28T21:24:59.159Z,5.55
2023-01-28T21:30:20.349Z,8.45
2023-01-28T21:35:45.932Z,4.97
2023-01-28T21:41:07.892Z,5.35
2023-01-28T21:46:33.009Z,4.97
2023-01-28T21:51:53.647Z,3.15
2023-01-28T21:57:14.252Z,5.40
2023-01-28T22:02:37.637Z,4.63
2023-01-28T22:07:58.349Z,3.30
2023-01-28T22:13:19.320Z,5.40
2023-01-28T22:18:40.564Z,3.47
2023-01-28T22:24:01.448Z,4.50
2023-01-28T22:29:23.508Z,4.45
2023-01-28T22:34:46.672Z,6.28
2023-01-28T22:40:08.164Z,4.57
2023-01-28T22:45:28.755Z,5.65
2023-01-28T22:50:49.572Z,4.50
2023-01-28T22:56:10.626Z,4.53
2023-01-28T23:01:33.621Z,6.43
2023-01-28T23:06:54.255Z,7.82
2023-01-28T23:12:15.199Z,7.20
2023-01-28T23:17:54.503Z,5.28
2023-01-28T23:23:35.728Z,5.50
2023-01-28T23:28:56.500Z,6.40
2023-01-28T23:34:17.489Z,6.03
2023-01-28T23:39:38.775Z,4.65
2023-01-28T23:44:59.733Z,6.07
2023-01-28T23:50:20.328Z,6.10
2023-01-28T23:55:40.981Z,7.60
